CSN3529 ZGGG-ZSSS
Flight info
| Callsign | CSN3529 |
|---|---|
| Flight time | 1h 46m |
| Altitude | 35100 |
| Route | BOVMA W41 OMDUP G471 PLT A599 ELNEX G204 JTN |
| Aircraft | B77W/H-SDE1E2E3FGHIJ2J3J4J5M1RWXY/LB1D1 |
Departure
| Time | 2026-04-27 09:18 |
|---|---|
| Airport | Guangzhou Baiyun International Airport (ZGGG) |
Arrival
| Time | 2026-04-27 11:05 |
|---|---|
| Airport | Shanghai Hongqiao International Airport (ZSSS) |
| Time | Latitude | Longitude | Altitude | Speed | Heading |
|---|---|---|---|---|---|
| 2026-04-27 08:55 | 23.40156 | 113.30710 | 60 ft | 0 kts | 265° |
| 2026-04-27 09:05 | 23.40157 | 113.30720 | 60 ft | 2 kts | 265° |
| 2026-04-27 09:05 | 23.40158 | 113.30737 | 60 ft | 2 kts | 265° |
| 2026-04-27 09:05 | 23.40159 | 113.30753 | 60 ft | 2 kts | 265° |
| 2026-04-27 09:05 | 23.40161 | 113.30769 | 60 ft | 2 kts | 265° |
| 2026-04-27 09:06 | 23.40162 | 113.30785 | 60 ft | 2 kts | 265° |
| 2026-04-27 09:06 | 23.40163 | 113.30802 | 60 ft | 2 kts | 263° |
| 2026-04-27 09:06 | 23.40167 | 113.30817 | 60 ft | 2 kts | 240° |
| 2026-04-27 09:06 | 23.40176 | 113.30830 | 60 ft | 2 kts | 221° |
| 2026-04-27 09:07 | 23.40188 | 113.30840 | 60 ft | 2 kts | 203° |
| 2026-04-27 09:07 | 23.40202 | 113.30845 | 60 ft | 2 kts | 192° |
| 2026-04-27 09:07 | 23.40217 | 113.30848 | 60 ft | 2 kts | 194° |
| 2026-04-27 09:07 | 23.40231 | 113.30853 | 60 ft | 2 kts | 196° |
| 2026-04-27 09:08 | 23.40246 | 113.30857 | 60 ft | 2 kts | 195° |
| 2026-04-27 09:08 | 23.40260 | 113.30861 | 60 ft | 1 kts | 195° |
| 2026-04-27 09:08 | 23.40261 | 113.30862 | 60 ft | 0 kts | 195° |
| 2026-04-27 09:13 | 23.40261 | 113.30861 | 60 ft | 0 kts | 195° |
| 2026-04-27 09:14 | 23.40247 | 113.30857 | 60 ft | 4 kts | 194° |
| 2026-04-27 09:14 | 23.40219 | 113.30868 | 60 ft | 5 kts | 127° |
| 2026-04-27 09:14 | 23.40205 | 113.30920 | 60 ft | 8 kts | 102° |
| 2026-04-27 09:14 | 23.40184 | 113.30997 | 60 ft | 12 kts | 107° |
| 2026-04-27 09:15 | 23.40218 | 113.31048 | 60 ft | 10 kts | 22° |
| 2026-04-27 09:15 | 23.40302 | 113.31070 | 60 ft | 14 kts | 8° |
| 2026-04-27 09:15 | 23.40412 | 113.31093 | 60 ft | 17 kts | 13° |
| 2026-04-27 09:15 | 23.40537 | 113.31132 | 60 ft | 20 kts | 15° |
| 2026-04-27 09:16 | 23.40680 | 113.31174 | 60 ft | 17 kts | 13° |
| 2026-04-27 09:16 | 23.40727 | 113.31187 | 60 ft | 5 kts | 13° |
| 2026-04-27 09:16 | 23.40806 | 113.31207 | 60 ft | 18 kts | 13° |
| 2026-04-27 09:16 | 23.40908 | 113.31272 | 60 ft | 15 kts | 98° |
| 2026-04-27 09:17 | 23.40888 | 113.31383 | 60 ft | 14 kts | 104° |
| 2026-04-27 09:17 | 23.40818 | 113.31418 | 60 ft | 11 kts | 190° |
| 2026-04-27 09:17 | 23.40732 | 113.31392 | 60 ft | 15 kts | 197° |
| 2026-04-27 09:17 | 23.40605 | 113.31358 | 60 ft | 26 kts | 194° |
| 2026-04-27 09:18 | 23.40308 | 113.31280 | 60 ft | 63 kts | 194° |
| 2026-04-27 09:18 | 23.39613 | 113.31089 | 61 ft | 145 kts | 193° |
| 2026-04-27 09:18 | 23.38454 | 113.30792 | 456 ft | 189 kts | 187° |
| 2026-04-27 09:18 | 23.37135 | 113.30473 | 1470 ft | 202 kts | 193° |
| 2026-04-27 09:19 | 23.35804 | 113.30096 | 2328 ft | 200 kts | 192° |
| 2026-04-27 09:19 | 23.34396 | 113.29709 | 2772 ft | 219 kts | 192° |
| 2026-04-27 09:19 | 23.32901 | 113.29295 | 3471 ft | 224 kts | 192° |
| 2026-04-27 09:19 | 23.31370 | 113.28872 | 4213 ft | 227 kts | 192° |
| 2026-04-27 09:20 | 23.29835 | 113.28507 | 4966 ft | 227 kts | 185° |
| 2026-04-27 09:20 | 23.28248 | 113.28443 | 5605 ft | 238 kts | 180° |
| 2026-04-27 09:20 | 23.26566 | 113.28467 | 6314 ft | 245 kts | 173° |
| 2026-04-27 09:20 | 23.24946 | 113.29118 | 6985 ft | 256 kts | 147° |
| 2026-04-27 09:21 | 23.23750 | 113.30578 | 7679 ft | 269 kts | 122° |
| 2026-04-27 09:21 | 23.22862 | 113.32411 | 8357 ft | 283 kts | 119° |
| 2026-04-27 09:21 | 23.21972 | 113.34349 | 9219 ft | 289 kts | 118° |
| 2026-04-27 09:21 | 23.21082 | 113.36295 | 10134 ft | 293 kts | 119° |
| 2026-04-27 09:22 | 23.20164 | 113.38299 | 10910 ft | 301 kts | 118° |
| 2026-04-27 09:22 | 23.19228 | 113.40343 | 11668 ft | 309 kts | 119° |
| 2026-04-27 09:22 | 23.18273 | 113.42454 | 12507 ft | 315 kts | 116° |
| 2026-04-27 09:22 | 23.17554 | 113.44714 | 13329 ft | 323 kts | 106° |
| 2026-04-27 09:23 | 23.17217 | 113.47111 | 14104 ft | 332 kts | 95° |
| 2026-04-27 09:23 | 23.17300 | 113.49648 | 14848 ft | 340 kts | 83° |
| 2026-04-27 09:23 | 23.17846 | 113.52152 | 15648 ft | 345 kts | 71° |
| 2026-04-27 09:23 | 23.18841 | 113.54519 | 16393 ft | 350 kts | 58° |
| 2026-04-27 09:24 | 23.20188 | 113.56751 | 17149 ft | 354 kts | 54° |
| 2026-04-27 09:24 | 23.21569 | 113.58968 | 17781 ft | 363 kts | 55° |
| 2026-04-27 09:24 | 23.23020 | 113.61367 | 18112 ft | 382 kts | 56° |
| 2026-04-27 09:24 | 23.24522 | 113.63898 | 18429 ft | 401 kts | 56° |
| 2026-04-27 09:25 | 23.26073 | 113.66524 | 18744 ft | 419 kts | 57° |
| 2026-04-27 09:25 | 23.27710 | 113.69309 | 19046 ft | 437 kts | 57° |
| 2026-04-27 09:25 | 23.29396 | 113.72180 | 19386 ft | 452 kts | 57° |
| 2026-04-27 09:25 | 23.31139 | 113.75154 | 20011 ft | 459 kts | 56° |
| 2026-04-27 09:26 | 23.32805 | 113.78000 | 20749 ft | 462 kts | 56° |
| 2026-04-27 09:26 | 23.34607 | 113.81081 | 21430 ft | 467 kts | 56° |
| 2026-04-27 09:26 | 23.36407 | 113.84160 | 22046 ft | 472 kts | 56° |
| 2026-04-27 09:26 | 23.38242 | 113.87302 | 22676 ft | 477 kts | 56° |
| 2026-04-27 09:27 | 23.40062 | 113.90421 | 23321 ft | 481 kts | 56° |
| 2026-04-27 09:27 | 23.41881 | 113.93539 | 23947 ft | 484 kts | 56° |
| 2026-04-27 09:27 | 23.43741 | 113.96731 | 24505 ft | 489 kts | 56° |
| 2026-04-27 09:27 | 23.45660 | 114.00024 | 25122 ft | 494 kts | 56° |
| 2026-04-27 09:28 | 23.47529 | 114.03236 | 25770 ft | 496 kts | 56° |
| 2026-04-27 09:28 | 23.49446 | 114.06531 | 26405 ft | 500 kts | 57° |
| 2026-04-27 09:28 | 23.51442 | 114.09665 | 26928 ft | 504 kts | 49° |
| 2026-04-27 09:28 | 23.53831 | 114.12444 | 27473 ft | 506 kts | 40° |
| 2026-04-27 09:29 | 23.56591 | 114.14822 | 28079 ft | 506 kts | 32° |
| 2026-04-27 09:29 | 23.59663 | 114.16754 | 28653 ft | 507 kts | 24° |
| 2026-04-27 09:29 | 23.62839 | 114.18407 | 29271 ft | 509 kts | 23° |
| 2026-04-27 09:29 | 23.66008 | 114.20026 | 30157 ft | 506 kts | 22° |
| 2026-04-27 09:30 | 23.69192 | 114.21657 | 31129 ft | 500 kts | 23° |
| 2026-04-27 09:30 | 23.72320 | 114.23262 | 32012 ft | 496 kts | 22° |
| 2026-04-27 09:30 | 23.75423 | 114.24857 | 32776 ft | 492 kts | 22° |
| 2026-04-27 09:30 | 23.78525 | 114.26455 | 33467 ft | 491 kts | 22° |
| 2026-04-27 09:31 | 23.81588 | 114.28123 | 34118 ft | 492 kts | 28° |
| 2026-04-27 09:31 | 23.84506 | 114.30259 | 34768 ft | 493 kts | 33° |
| 2026-04-27 09:31 | 23.87298 | 114.32523 | 35010 ft | 498 kts | 34° |
| 2026-04-27 09:32 | 23.92809 | 114.37036 | 35027 ft | 493 kts | 34° |
| 2026-04-27 09:32 | 23.98330 | 114.41562 | 35033 ft | 493 kts | 34° |
| 2026-04-27 09:33 | 24.03672 | 114.45943 | 35040 ft | 491 kts | 34° |
| 2026-04-27 09:33 | 24.08780 | 114.50136 | 35038 ft | 493 kts | 34° |
| 2026-04-27 09:34 | 24.14183 | 114.54574 | 35029 ft | 493 kts | 34° |
| 2026-04-27 09:34 | 24.19926 | 114.59297 | 35022 ft | 493 kts | 34° |
| 2026-04-27 09:35 | 24.25581 | 114.63953 | 35021 ft | 493 kts | 34° |
| 2026-04-27 09:35 | 24.31264 | 114.68638 | 35019 ft | 495 kts | 34° |
| 2026-04-27 09:36 | 24.36960 | 114.73338 | 35029 ft | 495 kts | 34° |
| 2026-04-27 09:36 | 24.42610 | 114.78006 | 35036 ft | 493 kts | 34° |
| 2026-04-27 09:37 | 24.48292 | 114.82705 | 35047 ft | 493 kts | 34° |
| 2026-04-27 09:37 | 24.53986 | 114.87420 | 35046 ft | 493 kts | 34° |
| 2026-04-27 09:38 | 24.59908 | 114.91914 | 35037 ft | 488 kts | 23° |
| 2026-04-27 09:38 | 24.66321 | 114.94370 | 35040 ft | 482 kts | 9° |
| 2026-04-27 09:39 | 24.72849 | 114.96008 | 35031 ft | 480 kts | 8° |
| 2026-04-27 09:39 | 24.79390 | 114.97623 | 35024 ft | 481 kts | 8° |
| 2026-04-27 09:40 | 24.85941 | 114.99217 | 35023 ft | 479 kts | 8° |
| 2026-04-27 09:40 | 24.92460 | 115.00804 | 35014 ft | 480 kts | 8° |
| 2026-04-27 09:41 | 24.99029 | 115.02406 | 35018 ft | 481 kts | 8° |
| 2026-04-27 09:41 | 25.05541 | 115.03996 | 35016 ft | 481 kts | 8° |
| 2026-04-27 09:42 | 25.12108 | 115.05600 | 35007 ft | 480 kts | 8° |
| 2026-04-27 09:42 | 25.18671 | 115.07205 | 35008 ft | 480 kts | 8° |
| 2026-04-27 09:43 | 25.25217 | 115.08809 | 35009 ft | 480 kts | 8° |
| 2026-04-27 09:43 | 25.31795 | 115.09987 | 35002 ft | 473 kts | 356° |
| 2026-04-27 09:44 | 25.38252 | 115.09068 | 34999 ft | 462 kts | 339° |
| 2026-04-27 09:44 | 25.44162 | 115.06367 | 34996 ft | 457 kts | 331° |
| 2026-04-27 09:45 | 25.49977 | 115.03390 | 34988 ft | 456 kts | 331° |
| 2026-04-27 09:45 | 25.55783 | 115.00409 | 34987 ft | 457 kts | 331° |
| 2026-04-27 09:46 | 25.61564 | 114.97437 | 35000 ft | 456 kts | 331° |
| 2026-04-27 09:46 | 25.67350 | 114.94463 | 35006 ft | 457 kts | 332° |
| 2026-04-27 09:47 | 25.73552 | 114.92586 | 35017 ft | 468 kts | 349° |
| 2026-04-27 09:47 | 25.80141 | 114.92896 | 35013 ft | 481 kts | 7° |
| 2026-04-27 09:48 | 25.86439 | 114.95515 | 35009 ft | 492 kts | 26° |
| 2026-04-27 09:48 | 25.91824 | 115.00343 | 35014 ft | 503 kts | 43° |
| 2026-04-27 09:49 | 25.96607 | 115.06077 | 34993 ft | 501 kts | 44° |
| 2026-04-27 09:49 | 26.01338 | 115.11756 | 34986 ft | 503 kts | 43° |
| 2026-04-27 09:50 | 26.06142 | 115.17503 | 34977 ft | 502 kts | 43° |
| 2026-04-27 09:50 | 26.10902 | 115.23192 | 34975 ft | 502 kts | 43° |
| 2026-04-27 09:51 | 26.15642 | 115.28856 | 34982 ft | 501 kts | 43° |
| 2026-04-27 09:51 | 26.20420 | 115.34569 | 34991 ft | 502 kts | 43° |
| 2026-04-27 09:52 | 26.25148 | 115.40228 | 34998 ft | 500 kts | 43° |
| 2026-04-27 09:52 | 26.29890 | 115.45910 | 35016 ft | 500 kts | 43° |
| 2026-04-27 09:53 | 26.34670 | 115.51643 | 35029 ft | 499 kts | 43° |
| 2026-04-27 09:53 | 26.39417 | 115.57343 | 35030 ft | 499 kts | 43° |
| 2026-04-27 09:54 | 26.44171 | 115.63061 | 35022 ft | 499 kts | 43° |
| 2026-04-27 09:54 | 26.48882 | 115.68733 | 35002 ft | 499 kts | 43° |
| 2026-04-27 09:55 | 26.53643 | 115.74474 | 35004 ft | 498 kts | 43° |
| 2026-04-27 09:55 | 26.60736 | 115.83038 | 35019 ft | 499 kts | 43° |
| 2026-04-27 09:56 | 26.65497 | 115.88796 | 35018 ft | 499 kts | 43° |
| 2026-04-27 09:56 | 26.70215 | 115.94512 | 35024 ft | 496 kts | 43° |
| 2026-04-27 09:57 | 26.74982 | 116.00292 | 35008 ft | 498 kts | 43° |
| 2026-04-27 09:57 | 26.79658 | 116.05971 | 35013 ft | 496 kts | 43° |
| 2026-04-27 09:58 | 26.84399 | 116.11736 | 35014 ft | 498 kts | 43° |
| 2026-04-27 09:58 | 26.89080 | 116.17436 | 35017 ft | 494 kts | 43° |
| 2026-04-27 09:59 | 26.93798 | 116.23172 | 35018 ft | 498 kts | 43° |
| 2026-04-27 09:59 | 26.98199 | 116.28472 | 35030 ft | 493 kts | 43° |
| 2026-04-27 10:00 | 27.02922 | 116.34163 | 35030 ft | 498 kts | 42° |
| 2026-04-27 10:00 | 27.07646 | 116.39867 | 35029 ft | 496 kts | 42° |
| 2026-04-27 10:01 | 27.12399 | 116.45614 | 35032 ft | 496 kts | 43° |
| 2026-04-27 10:01 | 27.17088 | 116.51292 | 35013 ft | 497 kts | 43° |
| 2026-04-27 10:02 | 27.21796 | 116.56992 | 35019 ft | 495 kts | 42° |
| 2026-04-27 10:02 | 27.26568 | 116.62540 | 35019 ft | 494 kts | 41° |
| 2026-04-27 10:03 | 27.31376 | 116.68122 | 35015 ft | 493 kts | 42° |
| 2026-04-27 10:03 | 27.36135 | 116.73665 | 35006 ft | 493 kts | 42° |
| 2026-04-27 10:04 | 27.40936 | 116.79266 | 35002 ft | 492 kts | 42° |
| 2026-04-27 10:04 | 27.45691 | 116.84823 | 35020 ft | 494 kts | 42° |
| 2026-04-27 10:05 | 27.50537 | 116.90496 | 35039 ft | 494 kts | 42° |
| 2026-04-27 10:05 | 27.55359 | 116.96102 | 35055 ft | 491 kts | 41° |
| 2026-04-27 10:06 | 27.60140 | 117.01620 | 35063 ft | 491 kts | 41° |
| 2026-04-27 10:06 | 27.64905 | 117.07131 | 35049 ft | 491 kts | 41° |
| 2026-04-27 10:07 | 27.69686 | 117.12669 | 35045 ft | 492 kts | 41° |
| 2026-04-27 10:07 | 27.74426 | 117.18169 | 35049 ft | 492 kts | 41° |
| 2026-04-27 10:08 | 27.79218 | 117.23736 | 35055 ft | 492 kts | 41° |
| 2026-04-27 10:08 | 27.83956 | 117.29249 | 35057 ft | 492 kts | 42° |
| 2026-04-27 10:09 | 27.88736 | 117.34819 | 35046 ft | 490 kts | 41° |
| 2026-04-27 10:09 | 27.93488 | 117.40362 | 35048 ft | 494 kts | 41° |
| 2026-04-27 10:10 | 27.98236 | 117.45909 | 35032 ft | 491 kts | 41° |
| 2026-04-27 10:10 | 28.02992 | 117.51473 | 35018 ft | 492 kts | 41° |
| 2026-04-27 10:11 | 28.07760 | 117.57059 | 35021 ft | 492 kts | 41° |
| 2026-04-27 10:11 | 28.12519 | 117.62640 | 35032 ft | 494 kts | 42° |
| 2026-04-27 10:12 | 28.17286 | 117.68240 | 35016 ft | 493 kts | 42° |
| 2026-04-27 10:12 | 28.22078 | 117.73877 | 35004 ft | 494 kts | 42° |
| 2026-04-27 10:13 | 28.26851 | 117.79499 | 34996 ft | 495 kts | 42° |
| 2026-04-27 10:13 | 28.31593 | 117.85092 | 35009 ft | 494 kts | 42° |
| 2026-04-27 10:14 | 28.36366 | 117.90730 | 35013 ft | 494 kts | 42° |
| 2026-04-27 10:14 | 28.41108 | 117.96339 | 35020 ft | 495 kts | 42° |
| 2026-04-27 10:15 | 28.45794 | 118.02031 | 35024 ft | 495 kts | 44° |
| 2026-04-27 10:15 | 28.50473 | 118.07801 | 35014 ft | 496 kts | 43° |
| 2026-04-27 10:16 | 28.55143 | 118.13560 | 35019 ft | 495 kts | 43° |
| 2026-04-27 10:16 | 28.59819 | 118.19332 | 35025 ft | 495 kts | 43° |
| 2026-04-27 10:17 | 28.64492 | 118.25105 | 35013 ft | 495 kts | 43° |
| 2026-04-27 10:17 | 28.69155 | 118.30872 | 35008 ft | 496 kts | 43° |
| 2026-04-27 10:18 | 28.73794 | 118.36618 | 35011 ft | 495 kts | 43° |
| 2026-04-27 10:18 | 28.78460 | 118.42404 | 35006 ft | 495 kts | 43° |
| 2026-04-27 10:19 | 28.83113 | 118.48183 | 35015 ft | 495 kts | 43° |
| 2026-04-27 10:19 | 28.87794 | 118.54003 | 35012 ft | 497 kts | 43° |
| 2026-04-27 10:20 | 28.92424 | 118.59770 | 35007 ft | 496 kts | 43° |
| 2026-04-27 10:20 | 28.97091 | 118.65591 | 35000 ft | 496 kts | 43° |
| 2026-04-27 10:21 | 28.99371 | 118.68436 | 34684 ft | 500 kts | 43° |
| 2026-04-27 10:21 | 29.01697 | 118.71343 | 34125 ft | 495 kts | 44° |
| 2026-04-27 10:21 | 29.04012 | 118.74239 | 33562 ft | 490 kts | 44° |
| 2026-04-27 10:21 | 29.06304 | 118.77108 | 33033 ft | 485 kts | 43° |
| 2026-04-27 10:22 | 29.08541 | 118.79910 | 32534 ft | 479 kts | 43° |
| 2026-04-27 10:22 | 29.10774 | 118.82709 | 32037 ft | 474 kts | 44° |
| 2026-04-27 10:22 | 29.12990 | 118.85488 | 31545 ft | 470 kts | 43° |
| 2026-04-27 10:22 | 29.15180 | 118.88235 | 31052 ft | 465 kts | 43° |
| 2026-04-27 10:23 | 29.17347 | 118.90955 | 30559 ft | 461 kts | 44° |
| 2026-04-27 10:23 | 29.19503 | 118.93665 | 30065 ft | 457 kts | 44° |
| 2026-04-27 10:23 | 29.21643 | 118.96355 | 29570 ft | 453 kts | 44° |
| 2026-04-27 10:23 | 29.23743 | 118.98996 | 29086 ft | 449 kts | 44° |
| 2026-04-27 10:24 | 29.25842 | 119.01638 | 28605 ft | 446 kts | 44° |
| 2026-04-27 10:24 | 29.27909 | 119.04242 | 28130 ft | 443 kts | 44° |
| 2026-04-27 10:24 | 29.29977 | 119.06848 | 27651 ft | 440 kts | 44° |
| 2026-04-27 10:24 | 29.32007 | 119.09409 | 27181 ft | 437 kts | 44° |
| 2026-04-27 10:25 | 29.34052 | 119.11990 | 26703 ft | 434 kts | 44° |
| 2026-04-27 10:25 | 29.36064 | 119.14530 | 26230 ft | 430 kts | 44° |
| 2026-04-27 10:25 | 29.38067 | 119.17067 | 25757 ft | 427 kts | 44° |
| 2026-04-27 10:25 | 29.40028 | 119.19555 | 25292 ft | 424 kts | 44° |
| 2026-04-27 10:26 | 29.41995 | 119.22052 | 24821 ft | 421 kts | 44° |
| 2026-04-27 10:26 | 29.43967 | 119.24556 | 24350 ft | 418 kts | 44° |
| 2026-04-27 10:26 | 29.45898 | 119.27011 | 23884 ft | 415 kts | 44° |
| 2026-04-27 10:26 | 29.47810 | 119.29442 | 23419 ft | 412 kts | 44° |
| 2026-04-27 10:27 | 29.49734 | 119.31889 | 22952 ft | 409 kts | 45° |
| 2026-04-27 10:27 | 29.51629 | 119.34302 | 22495 ft | 406 kts | 44° |
| 2026-04-27 10:27 | 29.53511 | 119.36700 | 22043 ft | 404 kts | 44° |
| 2026-04-27 10:27 | 29.55379 | 119.39079 | 21593 ft | 401 kts | 44° |
| 2026-04-27 10:28 | 29.57233 | 119.41440 | 21144 ft | 399 kts | 44° |
| 2026-04-27 10:28 | 29.58990 | 119.43937 | 20690 ft | 399 kts | 52° |
| 2026-04-27 10:28 | 29.60428 | 119.46629 | 20242 ft | 399 kts | 60° |
| 2026-04-27 10:28 | 29.61557 | 119.49518 | 19791 ft | 399 kts | 68° |
| 2026-04-27 10:29 | 29.62355 | 119.52563 | 19339 ft | 398 kts | 76° |
| 2026-04-27 10:29 | 29.62801 | 119.55687 | 18885 ft | 397 kts | 84° |
| 2026-04-27 10:29 | 29.62898 | 119.58848 | 18437 ft | 395 kts | 91° |
| 2026-04-27 10:29 | 29.62825 | 119.61985 | 17994 ft | 393 kts | 91° |
| 2026-04-27 10:30 | 29.62745 | 119.65120 | 17498 ft | 392 kts | 92° |
| 2026-04-27 10:30 | 29.62677 | 119.68221 | 16944 ft | 389 kts | 91° |
| 2026-04-27 10:30 | 29.62612 | 119.71515 | 16340 ft | 387 kts | 92° |
| 2026-04-27 10:30 | 29.62547 | 119.74761 | 15771 ft | 383 kts | 92° |
| 2026-04-27 10:31 | 29.62486 | 119.77768 | 15595 ft | 369 kts | 92° |
| 2026-04-27 10:31 | 29.62424 | 119.80756 | 15581 ft | 374 kts | 92° |
| 2026-04-27 10:31 | 29.62361 | 119.83727 | 15565 ft | 373 kts | 92° |
| 2026-04-27 10:31 | 29.62298 | 119.86673 | 15564 ft | 374 kts | 92° |
| 2026-04-27 10:32 | 29.62232 | 119.89677 | 15560 ft | 375 kts | 92° |
| 2026-04-27 10:32 | 29.62167 | 119.92674 | 15554 ft | 374 kts | 92° |
| 2026-04-27 10:32 | 29.62100 | 119.95674 | 15555 ft | 373 kts | 92° |
| 2026-04-27 10:32 | 29.62031 | 119.98724 | 15550 ft | 375 kts | 92° |
| 2026-04-27 10:33 | 29.61961 | 120.01809 | 15538 ft | 374 kts | 92° |
| 2026-04-27 10:33 | 29.61890 | 120.04900 | 15541 ft | 375 kts | 92° |
| 2026-04-27 10:33 | 29.61816 | 120.08088 | 15541 ft | 374 kts | 92° |
| 2026-04-27 10:33 | 29.61745 | 120.11137 | 15544 ft | 375 kts | 92° |
| 2026-04-27 10:34 | 29.61671 | 120.14249 | 15545 ft | 375 kts | 92° |
| 2026-04-27 10:34 | 29.61597 | 120.17364 | 15542 ft | 373 kts | 92° |
| 2026-04-27 10:34 | 29.61523 | 120.20416 | 15545 ft | 375 kts | 92° |
| 2026-04-27 10:34 | 29.61450 | 120.23437 | 15543 ft | 375 kts | 92° |
| 2026-04-27 10:35 | 29.61679 | 120.26635 | 15555 ft | 375 kts | 74° |
| 2026-04-27 10:35 | 29.62672 | 120.29385 | 15534 ft | 371 kts | 55° |
| 2026-04-27 10:35 | 29.64345 | 120.31638 | 15536 ft | 366 kts | 36° |
| 2026-04-27 10:35 | 29.66436 | 120.33218 | 15545 ft | 362 kts | 25° |
| 2026-04-27 10:36 | 29.68653 | 120.34611 | 15533 ft | 360 kts | 24° |
| 2026-04-27 10:36 | 29.70865 | 120.35976 | 15243 ft | 363 kts | 24° |
| 2026-04-27 10:36 | 29.73080 | 120.37337 | 14898 ft | 361 kts | 24° |
| 2026-04-27 10:36 | 29.75475 | 120.38798 | 14535 ft | 389 kts | 24° |
| 2026-04-27 10:37 | 29.78008 | 120.40322 | 14152 ft | 392 kts | 24° |
| 2026-04-27 10:37 | 29.80489 | 120.41817 | 13783 ft | 389 kts | 24° |
| 2026-04-27 10:37 | 29.83008 | 120.43327 | 13416 ft | 387 kts | 24° |
| 2026-04-27 10:37 | 29.85446 | 120.44784 | 13058 ft | 384 kts | 24° |
| 2026-04-27 10:38 | 29.87859 | 120.46214 | 12701 ft | 381 kts | 24° |
| 2026-04-27 10:38 | 29.90221 | 120.47606 | 12349 ft | 376 kts | 24° |
| 2026-04-27 10:38 | 29.92644 | 120.49024 | 11978 ft | 374 kts | 24° |
| 2026-04-27 10:38 | 29.94954 | 120.50367 | 11748 ft | 370 kts | 24° |
| 2026-04-27 10:39 | 29.97320 | 120.51733 | 11725 ft | 373 kts | 24° |
| 2026-04-27 10:39 | 29.99745 | 120.53134 | 11716 ft | 372 kts | 24° |
| 2026-04-27 10:39 | 30.02094 | 120.54490 | 11700 ft | 373 kts | 24° |
| 2026-04-27 10:39 | 30.04396 | 120.55815 | 11679 ft | 373 kts | 24° |
| 2026-04-27 10:40 | 30.06655 | 120.57117 | 11718 ft | 374 kts | 24° |
| 2026-04-27 10:40 | 30.08986 | 120.58459 | 11722 ft | 374 kts | 24° |
| 2026-04-27 10:40 | 30.11345 | 120.59814 | 11720 ft | 373 kts | 24° |
| 2026-04-27 10:40 | 30.13649 | 120.61129 | 11705 ft | 373 kts | 23° |
| 2026-04-27 10:41 | 30.15985 | 120.62470 | 11732 ft | 374 kts | 24° |
| 2026-04-27 10:41 | 30.18317 | 120.63812 | 11689 ft | 373 kts | 24° |
| 2026-04-27 10:41 | 30.20663 | 120.65159 | 11670 ft | 374 kts | 24° |
| 2026-04-27 10:41 | 30.23014 | 120.66504 | 11474 ft | 372 kts | 24° |
| 2026-04-27 10:42 | 30.25341 | 120.67834 | 11293 ft | 370 kts | 24° |
| 2026-04-27 10:42 | 30.27625 | 120.69137 | 11100 ft | 368 kts | 24° |
| 2026-04-27 10:42 | 30.29933 | 120.70451 | 10970 ft | 367 kts | 24° |
| 2026-04-27 10:42 | 30.32263 | 120.71768 | 10804 ft | 365 kts | 24° |
| 2026-04-27 10:43 | 30.34563 | 120.73061 | 10594 ft | 363 kts | 24° |
| 2026-04-27 10:43 | 30.36826 | 120.74328 | 10415 ft | 361 kts | 24° |
| 2026-04-27 10:43 | 30.39065 | 120.75581 | 10218 ft | 359 kts | 24° |
| 2026-04-27 10:43 | 30.41341 | 120.76848 | 10024 ft | 356 kts | 24° |
| 2026-04-27 10:44 | 30.43590 | 120.78095 | 9828 ft | 355 kts | 24° |
| 2026-04-27 10:44 | 30.45861 | 120.79355 | 9640 ft | 352 kts | 24° |
| 2026-04-27 10:44 | 30.48134 | 120.80660 | 9440 ft | 351 kts | 25° |
| 2026-04-27 10:44 | 30.50388 | 120.81961 | 9238 ft | 350 kts | 25° |
| 2026-04-27 10:45 | 30.52557 | 120.83215 | 9042 ft | 348 kts | 25° |
| 2026-04-27 10:45 | 30.54839 | 120.84534 | 8838 ft | 346 kts | 25° |
| 2026-04-27 10:45 | 30.57065 | 120.85822 | 8636 ft | 344 kts | 25° |
| 2026-04-27 10:45 | 30.59315 | 120.87125 | 8431 ft | 342 kts | 25° |
| 2026-04-27 10:46 | 30.61501 | 120.88391 | 8234 ft | 341 kts | 25° |
| 2026-04-27 10:46 | 30.63673 | 120.89649 | 8034 ft | 340 kts | 25° |
| 2026-04-27 10:46 | 30.65830 | 120.90900 | 7915 ft | 338 kts | 25° |
| 2026-04-27 10:46 | 30.67932 | 120.92120 | 7899 ft | 327 kts | 25° |
| 2026-04-27 10:47 | 30.69936 | 120.93285 | 7896 ft | 310 kts | 25° |
| 2026-04-27 10:47 | 30.71806 | 120.94372 | 7896 ft | 295 kts | 24° |
| 2026-04-27 10:47 | 30.73605 | 120.95418 | 7897 ft | 280 kts | 24° |
| 2026-04-27 10:47 | 30.75293 | 120.96401 | 7893 ft | 266 kts | 24° |
| 2026-04-27 10:48 | 30.76932 | 120.97355 | 7895 ft | 257 kts | 24° |
| 2026-04-27 10:48 | 30.78524 | 120.98280 | 7896 ft | 258 kts | 24° |
| 2026-04-27 10:48 | 30.80144 | 120.99223 | 7896 ft | 257 kts | 24° |
| 2026-04-27 10:48 | 30.81755 | 121.00159 | 7898 ft | 258 kts | 24° |
| 2026-04-27 10:49 | 30.83346 | 121.01086 | 7900 ft | 257 kts | 24° |
| 2026-04-27 10:49 | 30.84984 | 121.02039 | 7912 ft | 255 kts | 24° |
| 2026-04-27 10:49 | 30.86629 | 121.02996 | 7931 ft | 265 kts | 24° |
| 2026-04-27 10:49 | 30.88226 | 121.03928 | 7920 ft | 252 kts | 24° |
| 2026-04-27 10:50 | 30.89783 | 121.04836 | 7923 ft | 247 kts | 24° |
| 2026-04-27 10:50 | 30.91317 | 121.05731 | 7915 ft | 247 kts | 24° |
| 2026-04-27 10:50 | 30.92860 | 121.06631 | 7912 ft | 246 kts | 24° |
| 2026-04-27 10:50 | 30.94380 | 121.07517 | 7916 ft | 246 kts | 24° |
| 2026-04-27 10:51 | 30.95910 | 121.08411 | 7897 ft | 245 kts | 24° |
| 2026-04-27 10:51 | 30.97437 | 121.09302 | 7908 ft | 246 kts | 24° |
| 2026-04-27 10:51 | 30.98968 | 121.10196 | 7910 ft | 246 kts | 24° |
| 2026-04-27 10:51 | 31.00431 | 121.11050 | 7914 ft | 247 kts | 24° |
| 2026-04-27 10:52 | 31.01932 | 121.11928 | 7882 ft | 245 kts | 24° |
| 2026-04-27 10:52 | 31.03391 | 121.12781 | 7870 ft | 246 kts | 24° |
| 2026-04-27 10:52 | 31.04744 | 121.13571 | 7746 ft | 247 kts | 24° |
| 2026-04-27 10:52 | 31.06276 | 121.14468 | 7503 ft | 245 kts | 24° |
| 2026-04-27 10:53 | 31.07796 | 121.15357 | 7230 ft | 243 kts | 24° |
| 2026-04-27 10:53 | 31.10765 | 121.17095 | 6652 ft | 240 kts | 24° |
| 2026-04-27 10:53 | 31.12289 | 121.17989 | 6378 ft | 238 kts | 24° |
| 2026-04-27 10:54 | 31.13775 | 121.18860 | 6098 ft | 237 kts | 24° |
| 2026-04-27 10:54 | 31.15269 | 121.19735 | 5797 ft | 238 kts | 24° |
| 2026-04-27 10:54 | 31.16767 | 121.20614 | 5534 ft | 238 kts | 24° |
| 2026-04-27 10:54 | 31.18239 | 121.21478 | 5246 ft | 237 kts | 24° |
| 2026-04-27 10:55 | 31.19730 | 121.22321 | 4967 ft | 234 kts | 18° |
| 2026-04-27 10:55 | 31.21312 | 121.22607 | 4925 ft | 232 kts | 359° |
| 2026-04-27 10:55 | 31.22944 | 121.22574 | 4922 ft | 233 kts | 356° |
| 2026-04-27 10:55 | 31.24578 | 121.22494 | 4924 ft | 232 kts | 356° |
| 2026-04-27 10:56 | 31.26186 | 121.22406 | 4927 ft | 233 kts | 355° |
| 2026-04-27 10:56 | 31.27822 | 121.22317 | 4932 ft | 232 kts | 356° |
| 2026-04-27 10:56 | 31.29428 | 121.22229 | 4932 ft | 232 kts | 356° |
| 2026-04-27 10:56 | 31.31054 | 121.22141 | 4911 ft | 231 kts | 355° |
| 2026-04-27 10:57 | 31.32663 | 121.22053 | 4920 ft | 232 kts | 355° |
| 2026-04-27 10:57 | 31.34281 | 121.21965 | 4932 ft | 233 kts | 355° |
| 2026-04-27 10:57 | 31.35908 | 121.21997 | 4895 ft | 236 kts | 8° |
| 2026-04-27 10:57 | 31.37399 | 121.22840 | 4340 ft | 243 kts | 39° |
| 2026-04-27 10:58 | 31.38317 | 121.24501 | 3749 ft | 249 kts | 71° |
| 2026-04-27 10:58 | 31.38421 | 121.26511 | 3194 ft | 251 kts | 92° |
| 2026-04-27 10:58 | 31.38310 | 121.28568 | 2610 ft | 251 kts | 94° |
| 2026-04-27 10:58 | 31.37809 | 121.30518 | 2050 ft | 249 kts | 124° |
| 2026-04-27 10:59 | 31.36651 | 121.31889 | 1918 ft | 225 kts | 148° |
| 2026-04-27 10:59 | 31.35482 | 121.32922 | 1913 ft | 207 kts | 128° |
| 2026-04-27 10:59 | 31.34991 | 121.34442 | 1907 ft | 201 kts | 91° |
| 2026-04-27 11:00 | 31.36460 | 121.36865 | 1902 ft | 191 kts | 13° |
| 2026-04-27 11:00 | 31.37762 | 121.36776 | 1906 ft | 187 kts | 333° |
| 2026-04-27 11:00 | 31.38674 | 121.35816 | 1883 ft | 174 kts | 294° |
| 2026-04-27 11:00 | 31.38813 | 121.34468 | 1892 ft | 167 kts | 252° |
| 2026-04-27 11:01 | 31.38131 | 121.33379 | 1898 ft | 172 kts | 214° |
| 2026-04-27 11:01 | 31.37036 | 121.32793 | 1887 ft | 175 kts | 191° |
| 2026-04-27 11:01 | 31.35809 | 121.32742 | 1893 ft | 176 kts | 178° |
| 2026-04-27 11:01 | 31.34580 | 121.32833 | 1921 ft | 178 kts | 178° |
| 2026-04-27 11:02 | 31.33348 | 121.32904 | 1897 ft | 176 kts | 179° |
| 2026-04-27 11:02 | 31.32121 | 121.32965 | 1896 ft | 177 kts | 179° |
| 2026-04-27 11:02 | 31.30888 | 121.33029 | 1867 ft | 177 kts | 179° |
| 2026-04-27 11:02 | 31.29663 | 121.33096 | 1634 ft | 176 kts | 179° |
| 2026-04-27 11:03 | 31.28441 | 121.33161 | 1411 ft | 174 kts | 178° |
| 2026-04-27 11:03 | 31.27311 | 121.33222 | 1194 ft | 173 kts | 178° |
| 2026-04-27 11:03 | 31.26187 | 121.33285 | 985 ft | 172 kts | 178° |
| 2026-04-27 11:03 | 31.24985 | 121.33349 | 757 ft | 169 kts | 178° |
| 2026-04-27 11:04 | 31.24147 | 121.33394 | 584 ft | 162 kts | 178° |
| 2026-04-27 11:04 | 31.23054 | 121.33450 | 372 ft | 152 kts | 177° |
| 2026-04-27 11:04 | 31.22018 | 121.33513 | 171 ft | 141 kts | 177° |
| 2026-04-27 11:04 | 31.21072 | 121.33560 | 22 ft | 130 kts | 177° |
| 2026-04-27 11:05 | 31.20277 | 121.33604 | 21 ft | 97 kts | 177° |
| 2026-04-27 11:05 | 31.19721 | 121.33633 | 21 ft | 62 kts | 177° |
| 2026-04-27 11:05 | 31.19485 | 121.33643 | 21 ft | 19 kts | 184° |
| 2026-04-27 11:05 | 31.19316 | 121.33580 | 21 ft | 31 kts | 210° |
| 2026-04-27 11:06 | 31.19151 | 121.33491 | 21 ft | 9 kts | 206° |
| 2026-04-27 11:06 | 31.19112 | 121.33438 | 21 ft | 7 kts | 257° |
| 2026-04-27 11:06 | 31.19111 | 121.33378 | 21 ft | 7 kts | 271° |
| 2026-04-27 11:06 | 31.19110 | 121.33313 | 21 ft | 9 kts | 267° |
| 2026-04-27 11:07 | 31.19106 | 121.33219 | 21 ft | 13 kts | 267° |
| 2026-04-27 11:07 | 31.19104 | 121.33103 | 21 ft | 13 kts | 281° |
| 2026-04-27 11:07 | 31.19170 | 121.33062 | 21 ft | 12 kts | 4° |
| 2026-04-27 11:07 | 31.19266 | 121.33070 | 21 ft | 16 kts | 1° |
| 2026-04-27 11:08 | 31.19391 | 121.33065 | 21 ft | 19 kts | 359° |
| 2026-04-27 11:08 | 31.19534 | 121.33063 | 21 ft | 19 kts | 359° |
| 2026-04-27 11:08 | 31.19631 | 121.33056 | 21 ft | 8 kts | 339° |
| 2026-04-27 11:08 | 31.19657 | 121.33003 | 21 ft | 8 kts | 266° |
| 2026-04-27 11:09 | 31.19651 | 121.32935 | 21 ft | 8 kts | 264° |
| 2026-04-27 11:09 | 31.19646 | 121.32870 | 21 ft | 8 kts | 265° |
| 2026-04-27 11:09 | 31.19643 | 121.32806 | 21 ft | 7 kts | 268° |
| 2026-04-27 11:09 | 31.19641 | 121.32741 | 21 ft | 8 kts | 268° |
| 2026-04-27 11:10 | 31.19650 | 121.32680 | 21 ft | 7 kts | 314° |
| 2026-04-27 11:10 | 31.19699 | 121.32652 | 21 ft | 8 kts | 338° |
| 2026-04-27 11:10 | 31.19750 | 121.32625 | 21 ft | 4 kts | 335° |
| 2026-04-27 11:10 | 31.19782 | 121.32610 | 21 ft | 5 kts | 337° |
| 2026-04-27 11:11 | 31.19793 | 121.32604 | 21 ft | 0 kts | 339° |